Walgett, Australia
Current Conditions -  °F | °C
As of 11:00 PM on Saturday 01 Nov 2014 (Local Time) from YMOR Reporting Station
Clear Clear  
Wind Chill: 77°   Ceiling: Unl
Heat Index: 78°   Visibility: 6mi
Dew Point: 54°   Wind: 17mph
Humidity: 44%   Direction: 230°SW
Pressure: 29.85"   Gusts: NA
Location:  30.02°S, 148.12°E
Report Text: YMOR 011200Z AUTO 23015KT 9999 // NCD 25/12 Q1011
Loading
Personal Weather Stations






























Interactive Weather Map
Tropical Storm Tracking
New forecast layout! Learn more

10-Day Weather Forecast

Advertisements
Track Severe Weather on mobile